KMGG

Details ICAO KMGG
Name Maple Lake Municipal
Region United States
Timezone America/Chicago (UTC-5.0)
Plans Departing 0
Arriving 1
Stats Elevation 1,028 ft / 313 m (AMSL)
Location 45.235995° -93.985594°
Runways 1
Magnetic Variation 0.743° E
Sunrise 2018-05-21 10:41:19 UTC / 2018-05-21 05:41:19 Local
Sunset 2018-05-22 01:46:39 UTC / 2018-05-21 20:46:39 Local
Advertisement - Login to hide

Runways

ID Width Length Bearing (true) Bearing (mag) Surface Threshold Offset Overrun Length
10 60 ft / 18 m 2,789 ft / 850 m 102.19° 101.45° Asphalt 0 ft / 0 m 0 ft / 0 m
28 60 ft / 18 m 2,789 ft / 850 m 282.20° 281.46° Asphalt 0 ft / 0 m 0 ft / 0 m

Map

Weather


0- 5 10 15 20 25 30 35+ Temperature / ° C

Clouds and Precipitation
Forecast for 2018-05-21 12:00 UTC. Updated 8 minutes ago

Ground ~20,000 ft ~40,000 ft Winds

METAR

KMGG 210915Z AUTO 09004KT 10SM BKN055 OVC065 15/07 A3013 RMK AO2 T01480074

TAF

Not found
Warning: Do not use this data for real-world aviation or navigation. No guarantee of current accuracy is given.